Time;durP1;ratioP1;P1;durP2;ratioP2;P2;SDS_P1;SDS_P2;PMS_P1;PMS_P2;Temp;Humidity;BMP_temperature;BMP_pressure;BME280_temperature;BME280_humidity;BME280_pressure;Samples;Min_cycle;Max_cycle;Signal;HPM_P1;HPM_P2
2022/09/07 00:00:42;;;;;;;3.40;2.00;;;;;;;12.23;67.08;99207.30;104969;1271;61417;-72
2022/09/07 00:03:09;;;;;;;3.40;1.80;;;;;;;12.20;66.84;99206.80;105020;1271;61921;-70
2022/09/07 00:05:45;;;;;;;3.20;1.60;;;;;;;12.17;67.06;99203.27;105011;1271;61304;-70
2022/09/07 00:08:13;;;;;;;2.80;1.60;;;;;;;12.14;67.07;99206.75;105043;1271;70348;-70
2022/09/07 00:10:39;;;;;;;4.80;2.40;;;;;;;12.10;67.18;99205.61;105054;1271;74646;-71
2022/09/07 00:13:06;;;;;;;4.20;1.90;;;;;;;12.05;67.20;99197.75;105032;1271;61325;-71
2022/09/07 00:15:34;;;;;;;2.80;1.90;;;;;;;12.01;67.17;99194.65;105072;1271;61119;-72
2022/09/07 00:18:00;;;;;;;3.40;1.70;;;;;;;11.97;67.23;99191.70;105088;1271;76833;-71
2022/09/07 00:20:28;;;;;;;2.40;1.70;;;;;;;11.93;67.27;99194.64;104986;1271;61282;-71
2022/09/07 00:22:56;;;;;;;3.80;2.10;;;;;;;11.91;67.56;99197.52;105023;1271;73204;-71
2022/09/07 00:25:22;;;;;;;3.20;1.70;;;;;;;11.89;67.50;99194.80;104984;1271;61270;-71
2022/09/07 00:27:53;;;;;;;2.80;2.10;;;;;;;11.87;67.53;99190.45;105072;1271;61275;-71
2022/09/07 00:30:19;;;;;;;5.20;2.00;;;;;;;11.83;67.76;99186.56;105019;1271;76567;-72
2022/09/07 00:32:45;;;;;;;3.70;1.90;;;;;;;11.80;67.98;99187.48;104992;1271;61461;-71
2022/09/07 00:35:13;;;;;;;4.40;2.10;;;;;;;11.77;68.13;99189.33;105003;1271;74821;-71
2022/09/07 00:37:39;;;;;;;4.40;2.10;;;;;;;11.74;68.09;99197.92;104896;1271;61291;-71
2022/09/07 00:40:06;;;;;;;2.50;2.00;;;;;;;11.70;68.45;99196.37;105011;1271;61697;-71
2022/09/07 00:42:32;;;;;;;3.70;2.00;;;;;;;11.68;68.28;99193.19;105097;1271;61293;-70
2022/09/07 00:45:10;;;;;;;3.50;2.00;;;;;;;11.65;68.43;99195.30;105017;1271;61340;-71
2022/09/07 00:47:48;;;;;;;3.80;2.00;;;;;;;11.62;68.51;99196.77;105020;1271;74235;-71
2022/09/07 00:50:28;;;;;;;6.30;1.90;;;;;;;11.58;68.74;99201.45;104989;1271;61209;-71
2022/09/07 00:53:05;;;;;;;3.40;1.40;;;;;;;11.55;68.76;99200.27;104996;1271;61259;-70
2022/09/07 00:55:34;;;;;;;3.60;2.00;;;;;;;11.53;68.96;99202.70;104959;1271;76697;-71
2022/09/07 00:58:02;;;;;;;5.30;2.40;;;;;;;11.52;69.26;99199.57;105114;1271;70940;-70
2022/09/07 01:00:29;;;;;;;3.50;2.20;;;;;;;11.52;69.36;99201.19;104999;1271;73426;-71
2022/09/07 01:02:57;;;;;;;4.10;2.10;;;;;;;11.52;69.56;99197.65;104943;1271;61426;-71
2022/09/07 01:05:24;;;;;;;2.80;2.20;;;;;;;11.52;69.93;99197.06;104981;1271;61189;-70
2022/09/07 01:07:55;;;;;;;4.10;2.30;;;;;;;11.52;70.23;99194.59;105010;1271;61292;-71
2022/09/07 01:10:25;;;;;;;4.00;2.60;;;;;;;11.53;70.46;99190.44;104995;1271;69291;-71
2022/09/07 01:12:51;;;;;;;;;;;;;;;11.51;70.54;99186.45;104977;1271;74524;-71
2022/09/07 01:15:19;;;;;;;3.60;2.30;;;;;;;11.50;70.79;99187.06;104979;1271;61284;-71
2022/09/07 01:17:45;;;;;;;3.90;2.30;;;;;;;11.49;70.90;99184.64;104983;1272;61153;-71
2022/09/07 01:20:40;;;;;;;5.60;3.00;;;;;;;11.48;70.97;99183.29;104966;1272;61413;-71
2022/09/07 01:23:31;;;;;;;4.60;2.60;;;;;;;11.45;71.13;99180.27;104982;1271;70451;-71
2022/09/07 01:26:22;;;;;;;4.30;3.40;;;;;;;11.42;71.29;99179.44;104988;1271;73471;-71
2022/09/07 01:29:17;;;;;;;8.60;4.60;;;;;;;11.37;71.24;99179.17;104802;1273;61481;-71
2022/09/07 01:32:08;;;;;;;7.10;3.70;;;;;;;11.32;71.57;99171.38;104654;1276;61354;-70
2022/09/07 01:34:36;;;;;;;6.80;2.60;;;;;;;11.27;71.56;99167.10;104590;1276;75984;-70
2022/09/07 01:37:09;;;;;;;5.50;3.10;;;;;;;11.23;71.53;99169.82;104684;1276;70543;-70
2022/09/07 01:40:14;;;;;;;6.10;3.30;;;;;;;11.20;71.58;99167.51;104583;1276;74338;-70
2022/09/07 01:42:59;;;;;;;5.00;2.70;;;;;;;11.17;71.47;99165.27;104624;1276;61456;-71
2022/09/07 01:45:31;;;;;;;6.80;3.40;;;;;;;11.13;71.65;99163.59;104624;1276;61853;-70
2022/09/07 01:48:03;;;;;;;3.40;2.50;;;;;;;11.09;71.63;99161.15;104593;1276;75272;-70
2022/09/07 01:51:01;;;;;;;5.90;2.50;;;;;;;11.06;71.80;99161.20;104631;1276;70270;-71
2022/09/07 01:54:05;;;;;;;4.70;2.70;;;;;;;11.02;71.84;99167.30;104624;1276;74573;-71
2022/09/07 01:56:46;;;;;;;3.20;2.30;;;;;;;10.99;71.91;99167.14;104035;1282;61343;-71
2022/09/07 01:59:32;;;;;;;4.20;2.80;;;;;;;10.96;72.12;99168.20;103961;1282;60376;-71
2022/09/07 02:02:07;;;;;;;6.40;3.70;;;;;;;10.93;72.41;99167.73;104045;1282;76262;-71
2022/09/07 02:04:48;;;;;;;4.50;3.00;;;;;;;10.91;72.39;99174.25;104050;1282;70454;-71
2022/09/07 02:07:26;;;;;;;5.50;3.50;;;;;;;10.88;72.47;99175.52;104031;1282;74280;-71
2022/09/07 02:10:16;;;;;;;4.10;2.80;;;;;;;10.85;72.60;99173.61;104378;1277;61326;-71
2022/09/07 02:13:05;;;;;;;4.70;2.70;;;;;;;10.82;72.66;99178.80;104231;1283;61333;-70
2022/09/07 02:15:40;;;;;;;6.00;2.80;;;;;;;10.79;72.86;99172.41;104278;1282;76472;-71
2022/09/07 02:18:10;;;;;;;3.90;2.10;;;;;;;10.75;72.93;99161.09;104231;1283;70182;-71
2022/09/07 02:20:37;;;;;;;;;;;;;;;10.72;73.01;99159.48;104268;1283;73265;-71
2022/09/07 02:23:11;;;;;;;5.00;2.80;;;;;;;10.67;73.49;99153.97;104232;1283;61473;-71
2022/09/07 02:25:44;;;;;;;3.30;2.60;;;;;;;10.63;73.62;99154.40;104247;1282;62005;-71
2022/09/07 02:28:21;;;;;;;3.60;2.60;;;;;;;10.60;73.80;99152.63;104070;1283;76512;-71
2022/09/07 02:30:47;;;;;;;4.70;3.00;;;;;;;10.57;74.18;99155.66;104484;1277;70487;-70
2022/09/07 02:33:14;;;;;;;5.20;2.40;;;;;;;10.53;74.37;99152.89;104502;1277;61317;-72
2022/09/07 02:35:40;;;;;;;8.00;2.80;;;;;;;10.52;74.65;99154.75;104775;1277;61524;-72
2022/09/07 02:38:06;;;;;;;6.90;2.80;;;;;;;10.50;74.95;99150.63;104800;1277;61390;-71
2022/09/07 02:40:34;;;;;;;5.60;2.80;;;;;;;10.47;75.54;99144.75;104536;1277;61474;-71
2022/09/07 02:43:04;;;;;;;5.30;2.80;;;;;;;10.44;75.73;99142.33;104807;1277;69560;-71
2022/09/07 02:46:01;;;;;;;4.60;2.80;;;;;;;10.41;76.05;99140.88;104759;1277;74732;-71
2022/09/07 02:48:45;;;;;;;4.80;2.50;;;;;;;10.37;76.44;99143.48;104775;1277;61244;-71
2022/09/07 02:51:20;;;;;;;5.30;2.60;;;;;;;10.33;77.01;99149.21;104958;1273;61876;-71
2022/09/07 02:54:04;;;;;;;4.20;2.70;;;;;;;10.28;77.27;99147.77;104930;1271;76284;-71
2022/09/07 02:56:51;;;;;;;5.10;2.60;;;;;;;10.24;77.72;99147.09;104934;1271;69370;-70
2022/09/07 03:00:00;;;;;;;3.60;2.30;;;;;;;10.21;77.90;99148.67;104934;1272;73308;-71
2022/09/07 03:02:33;;;;;;;3.20;2.40;;;;;;;10.19;78.33;99150.08;104979;1271;61426;-71
2022/09/07 03:05:02;;;;;;;3.50;2.70;;;;;;;10.16;78.52;99147.61;104970;1271;61273;-71
2022/09/07 03:07:38;;;;;;;8.20;3.00;;;;;;;10.14;78.76;99153.56;105019;1271;76580;-71
2022/09/07 03:10:06;;;;;;;5.30;2.50;;;;;;;10.11;78.97;99160.66;104985;1271;69355;-71
2022/09/07 03:12:47;;;;;;;3.50;2.40;;;;;;;10.09;79.16;99166.83;104886;1273;73460;-72
2022/09/07 03:15:24;;;;;;;4.40;2.70;;;;;;;10.08;79.30;99169.38;104997;1271;61273;-70
2022/09/07 03:17:52;;;;;;;5.40;2.70;;;;;;;10.06;79.43;99167.20;105032;1271;61333;-73
2022/09/07 03:20:19;;;;;;;4.50;2.80;;;;;;;10.04;79.58;99162.70;104909;1273;74933;-71
2022/09/07 03:22:48;;;;;;;3.70;2.50;;;;;;;10.03;79.96;99157.83;104932;1273;70322;-73
2022/09/07 03:25:15;;;;;;;3.70;2.60;;;;;;;10.01;80.13;99152.80;105159;1271;73884;-71
2022/09/07 03:27:41;;;;;;;3.90;2.60;;;;;;;9.99;80.16;99144.05;105019;1274;61421;-71
2022/09/07 03:30:09;;;;;;;4.00;2.90;;;;;;;9.97;80.34;99143.48;104922;1273;61732;-71
2022/09/07 03:32:37;;;;;;;7.60;2.90;;;;;;;9.96;80.61;99142.66;104992;1273;75190;-72
2022/09/07 03:35:07;;;;;;;6.30;3.10;;;;;;;9.94;80.71;99145.24;105011;1271;69338;-71
2022/09/07 03:37:35;;;;;;;5.70;3.00;;;;;;;9.92;80.90;99143.42;105016;1273;74520;-71
2022/09/07 03:40:03;;;;;;;4.00;2.40;;;;;;;9.91;81.01;99147.23;104951;1271;61407;-71
2022/09/07 03:42:29;;;;;;;3.70;2.60;;;;;;;9.87;81.68;99147.80;104910;1273;61737;-71
2022/09/07 03:44:55;;;;;;;6.20;3.40;;;;;;;9.84;81.99;99151.90;104993;1271;61300;-71
2022/09/07 03:47:21;;;;;;;4.70;3.30;;;;;;;9.80;82.49;99152.13;104976;1271;61360;-71
2022/09/07 03:49:47;;;;;;;6.00;2.80;;;;;;;9.76;82.90;99151.48;104982;1271;61411;-72
2022/09/07 03:52:13;;;;;;;5.10;2.50;;;;;;;9.73;82.92;99157.00;104951;1271;61372;-71
2022/09/07 03:54:40;;;;;;;3.80;2.60;;;;;;;9.70;83.24;99161.59;104993;1271;61378;-71
2022/09/07 03:57:07;;;;;;;5.20;3.30;;;;;;;9.67;83.58;99156.08;104945;1271;61385;-71
2022/09/07 03:59:33;;;;;;;4.80;2.80;;;;;;;9.66;83.70;99159.17;104919;1272;61373;-70
2022/09/07 04:02:00;;;;;;;4.40;2.60;;;;;;;9.65;83.90;99158.70;104975;1271;61404;-70
2022/09/07 04:04:27;;;;;;;4.40;3.00;;;;;;;9.63;84.12;99164.14;104987;1272;61368;-71
2022/09/07 04:06:53;;;;;;;6.90;3.30;;;;;;;9.64;84.02;99167.98;104999;1271;61350;-71
2022/09/07 04:09:19;;;;;;;4.50;2.80;;;;;;;9.67;84.13;99170.33;105002;1272;61283;-71
2022/09/07 04:11:45;;;;;;;5.40;3.20;;;;;;;9.68;84.07;99175.73;104931;1271;61192;-71
2022/09/07 04:14:11;;;;;;;5.60;3.20;;;;;;;9.70;83.94;99170.84;105030;1272;61401;-72
2022/09/07 04:16:40;;;;;;;5.60;3.20;;;;;;;9.73;83.84;99170.50;105008;1271;61372;-70
2022/09/07 04:19:05;;;;;;;6.00;2.60;;;;;;;9.74;83.95;99173.44;104995;1271;61375;-71
2022/09/07 04:21:33;;;;;;;4.00;2.70;;;;;;;9.77;84.05;99176.46;104949;1271;61787;-70
2022/09/07 04:23:59;;;;;;;4.20;2.70;;;;;;;9.79;83.99;99178.27;104905;1273;61319;-72
2022/09/07 04:26:31;;;;;;;4.10;2.40;;;;;;;9.84;83.97;99178.31;105057;1273;61352;-70
2022/09/07 04:28:59;;;;;;;4.00;2.90;;;;;;;10.08;83.56;99176.67;105088;1272;61385;-71
2022/09/07 04:31:26;;;;;;;4.10;2.80;;;;;;;10.38;82.79;99170.41;104949;1272;62079;-72
2022/09/07 04:33:54;;;;;;;3.90;2.80;;;;;;;10.65;82.01;99169.73;105024;1271;61209;-70
2022/09/07 04:36:21;;;;;;;4.70;2.50;;;;;;;10.91;81.39;99166.44;104922;1273;69182;-71
2022/09/07 04:38:56;;;;;;;4.40;3.10;;;;;;;11.15;80.67;99160.75;105129;1271;73448;-71
2022/09/07 04:41:22;;;;;;;4.00;3.00;;;;;;;11.33;79.68;99163.61;104982;1271;61356;-70
2022/09/07 04:43:53;;;;;;;4.10;2.90;;;;;;;11.59;79.06;99164.21;104952;1271;61292;-71
2022/09/07 04:46:32;;;;;;;5.80;3.10;;;;;;;11.81;78.32;99162.17;105024;1271;75402;-71
2022/09/07 04:49:01;;;;;;;5.80;3.00;;;;;;;11.73;77.97;99157.59;104999;1271;70434;-71
2022/09/07 04:51:29;;;;;;;4.90;3.20;;;;;;;12.07;76.73;99150.60;105073;1271;73648;-71
2022/09/07 04:53:57;;;;;;;7.10;3.00;;;;;;;12.37;75.82;99150.42;104881;1274;61228;-71
2022/09/07 04:56:24;;;;;;;5.50;3.10;;;;;;;12.60;75.13;99146.61;105083;1271;61290;-71
2022/09/07 04:58:51;;;;;;;5.20;3.30;;;;;;;12.82;74.08;99148.72;105172;1271;76416;-71
2022/09/07 05:01:20;;;;;;;5.20;3.40;;;;;;;13.00;73.05;99146.48;104990;1271;61304;-71
2022/09/07 05:03:47;;;;;;;5.60;3.50;;;;;;;13.18;72.08;99141.98;104968;1271;73912;-71
2022/09/07 05:06:15;;;;;;;4.80;3.50;;;;;;;13.31;71.22;99142.95;105029;1271;61268;-71
2022/09/07 05:08:44;;;;;;;7.80;3.90;;;;;;;13.52;70.75;99143.33;105016;1271;61231;-72
2022/09/07 05:11:12;;;;;;;6.70;4.20;;;;;;;13.73;69.93;99148.15;105162;1271;76574;-72
2022/09/07 05:13:38;;;;;;;5.90;3.60;;;;;;;13.89;69.29;99147.08;104918;1271;69813;-71
2022/09/07 05:16:08;;;;;;;6.40;3.70;;;;;;;14.07;68.67;99145.48;104974;1271;61260;-72
2022/09/07 05:18:34;;;;;;;8.50;4.20;;;;;;;14.13;67.74;99145.89;105257;1271;61269;-72
2022/09/07 05:21:27;;;;;;;6.10;3.60;;;;;;;14.27;67.96;99140.13;104995;1271;61411;-72
2022/09/07 05:23:56;;;;;;;5.40;4.40;;;;;;;14.40;67.08;99144.60;104790;1277;76374;-72
2022/09/07 05:26:24;;;;;;;7.70;4.10;;;;;;;14.50;66.86;99140.27;104794;1277;70443;-72
2022/09/07 05:28:51;;;;;;;5.70;3.70;;;;;;;14.56;66.22;99138.04;104740;1277;73103;-72
2022/09/07 05:31:20;;;;;;;12.40;4.40;;;;;;;14.64;66.35;99137.23;104479;1278;61249;-70
2022/09/07 05:33:48;;;;;;;4.90;3.80;;;;;;;14.77;65.90;99137.19;104496;1280;61865;-71
2022/09/07 05:36:14;;;;;;;11.00;3.70;;;;;;;14.86;64.98;99137.67;104927;1277;74825;-71
2022/09/07 05:38:41;;;;;;;5.60;3.90;;;;;;;14.87;64.72;99138.16;104504;1278;70233;-72
2022/09/07 05:41:19;;;;;;;7.60;4.20;;;;;;;14.93;64.66;99140.34;104798;1277;74094;-72
2022/09/07 05:43:45;;;;;;;5.90;4.00;;;;;;;15.10;64.46;99135.23;104807;1277;61327;-72
2022/09/07 05:46:13;;;;;;;10.30;4.70;;;;;;;15.10;62.84;99131.04;104972;1277;61392;-73
2022/09/07 05:48:40;;;;;;;6.70;3.90;;;;;;;14.98;62.14;99138.48;104379;1280;74176;-70
2022/09/07 05:51:07;;;;;;;7.80;4.50;;;;;;;14.91;62.75;99148.05;104798;1277;61507;-70
2022/09/07 05:53:36;;;;;;;5.70;4.50;;;;;;;14.96;63.07;99151.61;104790;1277;74189;-71
2022/09/07 05:56:03;;;;;;;6.90;4.60;;;;;;;15.08;63.03;99145.77;104849;1277;61301;-71
2022/09/07 05:58:31;;;;;;;6.30;4.90;;;;;;;15.15;62.76;99141.05;104756;1277;61462;-71
2022/09/07 06:01:00;;;;;;;7.80;5.20;;;;;;;15.26;62.93;99143.73;104982;1271;76640;-72
2022/09/07 06:03:27;;;;;;;10.30;5.60;;;;;;;15.37;62.85;99146.15;105003;1271;70771;-72
2022/09/07 06:06:01;;;;;;;11.70;4.90;;;;;;;15.53;63.12;99147.30;105174;1271;73515;-72
2022/09/07 06:08:29;;;;;;;9.00;4.70;;;;;;;15.63;62.06;99151.89;105070;1271;61397;-72
2022/09/07 06:10:55;;;;;;;6.60;4.10;;;;;;;15.57;61.73;99153.22;105124;1271;61253;-72
2022/09/07 06:13:21;;;;;;;6.50;4.30;;;;;;;15.55;61.75;99153.80;104985;1271;61356;-72
2022/09/07 06:15:48;;;;;;;7.20;4.60;;;;;;;15.55;61.39;99158.74;104985;1271;61362;-72
2022/09/07 06:18:14;;;;;;;7.90;4.60;;;;;;;15.47;61.35;99153.80;104931;1271;61339;-72
2022/09/07 06:20:40;;;;;;;7.70;4.60;;;;;;;15.44;61.21;99155.66;105051;1271;61387;-71
2022/09/07 06:23:06;;;;;;;8.20;4.00;;;;;;;15.35;60.73;99153.81;104060;1271;1814533;-78
2022/09/07 06:25:32;;;;;;;8.80;5.10;;;;;;;15.19;60.87;99156.13;105059;1271;61354;-78
2022/09/07 06:27:58;;;;;;;8.20;4.50;;;;;;;15.09;61.41;99156.00;105258;1270;61409;-79
2022/09/07 06:30:24;;;;;;;9.30;4.70;;;;;;;15.08;61.76;99150.25;105650;1270;61364;-73
2022/09/07 06:32:51;;;;;;;6.70;4.60;;;;;;;15.01;62.61;99147.02;105081;1271;61330;-81
2022/09/07 06:35:17;;;;;;;8.30;4.60;;;;;;;14.99;63.56;99145.77;105874;1271;61261;-81
2022/09/07 06:37:43;;;;;;;7.80;4.90;;;;;;;14.99;63.52;99148.27;105553;1271;61555;-80
2022/09/07 06:40:11;;;;;;;7.00;4.30;;;;;;;14.95;63.67;99143.95;105469;1271;73748;-78
2022/09/07 06:42:37;;;;;;;7.10;4.40;;;;;;;14.90;63.90;99140.73;105533;1270;61209;-78
2022/09/07 06:45:04;;;;;;;8.70;5.10;;;;;;;14.84;63.54;99142.92;105378;1270;62196;-80
2022/09/07 06:47:31;;;;;;;7.00;5.10;;;;;;;14.63;63.83;99139.95;105405;1271;75143;-79
2022/09/07 06:49:57;;;;;;;8.30;4.90;;;;;;;14.49;64.55;99136.21;105410;1270;61333;-79
2022/09/07 06:52:23;;;;;;;8.00;4.90;;;;;;;14.49;65.49;99135.16;105374;1270;61304;-79
2022/09/07 06:54:50;;;;;;;7.50;4.70;;;;;;;14.57;65.74;99135.84;105065;1271;61290;-77
2022/09/07 06:57:16;;;;;;;7.40;4.80;;;;;;;14.65;65.71;99133.58;105202;1270;61356;-78
2022/09/07 06:59:42;;;;;;;7.80;4.60;;;;;;;14.65;65.50;99132.98;105041;1271;61302;-78
2022/09/07 07:02:10;;;;;;;8.60;5.10;;;;;;;14.56;65.67;99136.23;105550;1270;61288;-79
2022/09/07 07:04:36;;;;;;;8.40;4.80;;;;;;;14.57;65.99;99134.19;105270;1271;61313;-70
2022/09/07 07:07:02;;;;;;;11.00;4.60;;;;;;;14.59;65.86;99138.71;105220;1271;61274;-69
2022/09/07 07:09:28;;;;;;;7.80;4.80;;;;;;;14.55;65.98;99141.02;105301;1271;61467;-69
2022/09/07 07:11:54;;;;;;;6.50;4.90;;;;;;;14.52;66.47;99137.42;105291;1271;61321;-69
2022/09/07 07:14:20;;;;;;;9.20;5.60;;;;;;;14.61;66.85;99130.50;105271;1270;61293;-71
2022/09/07 07:16:47;;;;;;;11.70;5.30;;;;;;;14.72;67.03;99132.11;105220;1271;61375;-71
2022/09/07 07:19:13;;;;;;;7.80;5.00;;;;;;;14.87;67.44;99131.41;104992;1272;61268;-70
2022/09/07 07:21:39;;;;;;;10.50;4.70;;;;;;;15.00;67.38;99124.03;105197;1271;61324;-72
2022/09/07 07:24:05;;;;;;;8.70;5.10;;;;;;;15.08;67.10;99119.42;105248;1271;61390;-70
2022/09/07 07:26:33;;;;;;;7.20;5.40;;;;;;;15.09;66.98;99124.20;105214;1271;72152;-69
2022/09/07 07:28:59;;;;;;;7.30;5.20;;;;;;;15.15;67.56;99123.52;105233;1271;61272;-71
2022/09/07 07:31:26;;;;;;;10.50;5.90;;;;;;;15.25;67.89;99126.23;105236;1271;61303;-70
2022/09/07 07:33:52;;;;;;;9.10;5.30;;;;;;;15.40;67.82;99132.00;105211;1270;61323;-70
2022/09/07 07:36:20;;;;;;;7.40;4.80;;;;;;;15.45;67.43;99136.70;105202;1271;61394;-70
2022/09/07 07:38:52;;;;;;;9.40;5.10;;;;;;;15.42;67.30;99139.90;104927;1271;73138;-70
2022/09/07 07:41:20;;;;;;;13.00;6.30;;;;;;;15.48;67.70;99138.98;105377;1271;61285;-70
2022/09/07 07:43:47;;;;;;;8.90;5.70;;;;;;;15.54;67.74;99138.98;105302;1271;61397;-70
2022/09/07 07:46:15;;;;;;;9.20;5.70;;;;;;;15.57;67.47;99140.36;105233;1271;61269;-70
2022/09/07 07:48:45;;;;;;;10.40;5.80;;;;;;;15.59;67.80;99137.17;105313;1271;69298;-70
2022/09/07 07:51:11;;;;;;;;;;;;;;;15.67;67.87;99136.80;105245;1271;74366;-70
2022/09/07 07:53:39;;;;;;;;;;;;;;;15.70;67.76;99130.89;105200;1271;61301;-70
2022/09/07 07:56:05;;;;;;;;;;;;;;;15.79;68.31;99127.38;105206;1271;61874;-70
2022/09/07 07:58:32;;;;;;;;;;;;;;;15.95;68.25;99131.05;105055;1274;61285;-70
2022/09/07 08:01:00;;;;;;;;;;;;;;;16.08;67.78;99131.13;105243;1271;70306;-70
2022/09/07 08:03:26;;;;;;;;;;;;;;;16.14;67.78;99130.46;105387;1271;75047;-70
2022/09/07 08:05:53;;;;;;;;;;;;;;;16.15;68.12;99128.27;105225;1271;61274;-69
2022/09/07 08:08:20;;;;;;;;;;;;;;;16.18;68.24;99126.30;105277;1271;61710;-70
2022/09/07 08:10:46;;;;;;;;;;;;;;;16.29;68.53;99125.36;105203;1271;76444;-71
2022/09/07 08:13:13;;;;;;;;;;;;;;;16.39;68.98;99121.05;105261;1271;61375;-70
2022/09/07 08:15:43;;;;;;;;;;;;;;;16.56;68.94;99122.47;105396;1271;61303;-70
2022/09/07 08:18:11;;;;;;;;;;;;;;;16.73;68.95;99122.70;105001;1271;61397;-70
2022/09/07 08:20:37;;;;;;;;;;;;;;;16.92;68.89;99123.35;105229;1271;61259;-71
2022/09/07 08:23:06;;;;;;;;;;;;;;;17.04;68.09;99125.70;105209;1271;76671;-70
2022/09/07 08:25:32;;;;;;;;;;;;;;;17.02;67.64;99129.06;105260;1271;70239;-71
2022/09/07 08:27:58;;;;;;;;;;;;;;;17.05;67.67;99124.13;105203;1271;73252;-71
2022/09/07 08:30:24;;;;;;;;;;;;;;;17.14;68.27;99116.09;105204;1271;62818;-70
2022/09/07 08:32:50;;;;;;;;;;;;;;;17.30;68.38;99115.01;105199;1271;61176;-71
2022/09/07 08:35:16;;;;;;;;;;;;;;;17.39;67.56;99113.10;105164;1271;61255;-70
2022/09/07 08:37:43;;;;;;;;;;;;;;;17.41;67.05;99107.91;105181;1271;61385;-70
2022/09/07 08:40:18;;;;;;;;;;;;;;;17.46;67.60;99110.23;105201;1271;61288;-71
2022/09/07 08:42:43;;;;;;;;;;;;;;;17.63;67.54;99109.40;105195;1271;61259;-71
2022/09/07 08:45:25;;;;;;;;;;;;;;;17.78;67.50;99106.17;105233;1271;61258;-70
2022/09/07 08:47:51;;;;;;;;;;;;;;;17.88;67.37;99105.23;105218;1271;76398;-70
2022/09/07 08:50:17;;;;;;;;;;;;;;;18.04;67.75;99100.86;104993;1271;69483;-70
2022/09/07 08:53:00;;;;;;;;;;;;;;;18.18;67.51;99098.72;105177;1271;61288;-70
2022/09/07 08:55:28;;;;;;;;;;;;;;;18.32;67.53;99096.38;104974;1272;61226;-71
2022/09/07 08:58:00;;;;;;;;;;;;;;;18.45;67.08;99090.91;105205;1271;61724;-70
2022/09/07 09:00:26;;;;;;;;;;;;;;;18.52;66.81;99088.08;105174;1271;76270;-71
2022/09/07 09:02:52;;;;;;;;;;;;;;;18.63;66.93;99095.94;105048;1271;61563;-71
2022/09/07 09:05:26;;;;;;;;;;;;;;;18.72;66.31;99093.27;104961;1271;61561;-71
2022/09/07 09:08:10;;;;;;;;;;;;;;;18.81;66.23;99090.98;105246;1271;61278;-71
2022/09/07 09:10:37;;;;;;;;;;;;;;;18.93;65.32;99088.06;105329;1271;61187;-71
2022/09/07 09:13:23;;;;;;;;;;;;;;;18.95;65.08;99082.95;105191;1271;61341;-71
2022/09/07 09:15:57;;;;;;;;;;;;;;;19.03;65.17;99077.77;105137;1271;69350;-70
2022/09/07 09:18:27;;;;;;;;;;;;;;;19.17;64.99;99076.90;105327;1271;74457;-70
2022/09/07 09:20:57;;;;;;;;;;;;;;;19.24;63.99;99074.73;105198;1271;61275;-70
2022/09/07 09:23:25;;;;;;;;;;;;;;;19.34;64.65;99069.13;105212;1271;61228;-70
2022/09/07 09:25:53;;;;;;;;;;;;;;;19.48;64.57;99064.94;105216;1271;75336;-70
2022/09/07 09:28:19;;;;;;;;;;;;;;;19.62;64.51;99060.42;105025;1271;70924;-70
2022/09/07 09:30:46;;;;;;;;;;;;;;;19.72;63.61;99062.30;105198;1271;61293;-69
2022/09/07 09:33:20;;;;;;;;;;;;;;;19.78;63.39;99061.73;105211;1271;61365;-71
2022/09/07 09:35:50;;;;;;;;;;;;;;;19.82;62.69;99062.22;105200;1271;61259;-71
2022/09/07 09:38:35;;;;;;;;;;;;;;;19.81;61.98;99058.88;105218;1271;75295;-70
2022/09/07 09:41:02;;;;;;;;;;;;;;;19.85;62.47;99060.63;105224;1271;70424;-69
2022/09/07 09:43:33;;;;;;;;;;;;;;;20.00;62.53;99056.54;105214;1271;61354;-71
2022/09/07 09:45:59;;;;;;;;;;;;;;;20.15;62.88;99053.81;105034;1271;61283;-70
2022/09/07 09:48:38;;;;;;;;;;;;;;;20.35;62.85;99053.37;105298;1271;61645;-70
2022/09/07 09:51:05;;;;;;;;;;;;;;;20.55;63.27;99056.09;105263;1271;75368;-70
2022/09/07 09:53:34;;;;;;;;;;;;;;;20.71;62.83;99056.05;105224;1271;68621;-69
2022/09/07 09:56:02;;;;;;;;;;;;;;;20.81;62.12;99050.61;105216;1271;73529;-69
2022/09/07 09:58:29;;;;;;;;;;;;;;;20.89;61.98;99049.17;105280;1271;61461;-70
2022/09/07 10:00:56;;;;;;;;;;;;;;;20.99;61.53;99049.17;105197;1271;61272;-70
2022/09/07 10:03:25;;;;;;;;;;;;;;;21.03;60.86;99048.34;105191;1271;75697;-70
2022/09/07 10:05:51;;;;;;;;;;;;;;;21.02;60.65;99041.36;105200;1271;70361;-70
2022/09/07 10:08:16;;;;;;;;;;;;;;;21.07;60.96;99039.81;105211;1271;61354;-71
2022/09/07 10:10:51;;;;;;;;;;;;;;;21.16;60.89;99038.59;105237;1271;61461;-71
2022/09/07 10:13:21;;;;;;;;;;;;;;;21.30;61.27;99033.88;105229;1271;61590;-71
2022/09/07 10:15:51;;;;;;;;;;;;;;;21.45;61.37;99033.92;105004;1271;76241;-70
2022/09/07 10:18:21;;;;;;;;;;;;;;;21.54;60.24;99030.47;105254;1271;70352;-69
2022/09/07 10:20:47;;;;;;;;;;;;;;;21.55;60.25;99031.32;105227;1271;73542;-70
2022/09/07 10:23:21;;;;;;;;;;;;;;;21.55;59.76;99036.48;105193;1271;61463;-70
2022/09/07 10:25:47;;;;;;;;;;;;;;;21.54;60.06;99038.39;105197;1271;61262;-71
2022/09/07 10:28:17;;;;;;;;;;;;;;;21.58;59.88;99041.91;105033;1271;61343;-71
2022/09/07 10:30:48;;;;;;;;;;;;;;;21.61;59.68;99039.13;105238;1271;70392;-71
2022/09/07 10:33:33;;;;;;;;;;;;;;;21.65;59.78;99042.07;105172;1271;73305;-71
2022/09/07 10:36:09;;;;;;;;;;;;;;;21.72;59.08;99044.90;105242;1271;61259;-70
2022/09/07 10:38:39;;;;;;;;;;;;;;;21.70;58.99;99043.10;105187;1271;61275;-70
2022/09/07 10:41:07;;;;;;;;;;;;;;;21.73;59.11;99037.73;105253;1271;76263;-70
2022/09/07 10:43:38;;;;;;;;;;;;;;;21.83;59.55;99038.64;105249;1271;70955;-71
2022/09/07 10:46:05;;;;;;;;;;;;;;;21.93;59.21;99030.44;105214;1271;73349;-71
2022/09/07 10:48:30;;;;;;;;;;;;;;;21.90;58.70;99035.56;105035;1274;61275;-71
2022/09/07 10:50:58;;;;;;;;;;;;;;;21.85;58.57;99031.06;105239;1270;61023;-70
2022/09/07 10:53:30;;;;;;;;;;;;;;;21.88;59.27;99027.90;105312;1271;61279;-70
2022/09/07 10:56:04;;;;;;;;;;;;;;;21.98;58.83;99033.88;105254;1271;70132;-70
2022/09/07 10:58:33;;;;;;;;;;;;;;;21.99;58.65;99028.95;105225;1271;73476;-70
2022/09/07 11:00:59;;;;;;;;;;;;;;;22.06;58.91;99025.87;105208;1271;61280;-70
2022/09/07 11:03:28;;;;;;;;;;;;;;;22.13;58.97;99020.89;105235;1271;61358;-70
2022/09/07 11:06:29;;;;;;;;;;;;;;;22.23;58.51;99026.96;105228;1271;75450;-69
2022/09/07 11:09:05;;;;;;;;;;;;;;;22.31;58.35;99020.48;104572;1277;70353;-69
2022/09/07 11:11:36;;;;;;;;;;;;;;;22.33;58.03;99018.71;104624;1277;73544;-70
2022/09/07 11:14:07;;;;;;;;;;;;;;;22.39;58.19;99018.08;104463;1280;61480;-70
2022/09/07 11:16:37;;;;;;;;;;;;;;;22.44;57.84;99012.49;104583;1277;61842;-70
2022/09/07 11:19:10;;;;;;;;;;;;;;;22.48;58.02;99010.02;104614;1277;76541;-70
2022/09/07 11:21:39;;;;;;;;;;;;;;;22.58;58.05;99008.77;104639;1277;69371;-70
2022/09/07 11:24:17;;;;;;;;;;;;;;;22.63;57.57;99012.28;104573;1277;73480;-70
2022/09/07 11:26:49;;;;;;;;;;;;;;;22.67;57.97;99008.71;104579;1277;61275;-70
2022/09/07 11:29:23;;;;;;;;;;;;;;;22.76;58.46;99007.30;104576;1277;61602;-70
2022/09/07 11:31:52;;;;;;;;;;;;;;;22.89;58.44;98999.73;104450;1278;75455;-70
2022/09/07 11:34:18;;;;;;;;;;;;;;;23.01;58.15;99003.80;104580;1277;70430;-70
2022/09/07 11:37:03;;;;;;;;;;;;;;;23.04;58.01;99001.61;104569;1277;61305;-71
2022/09/07 11:39:34;;;;;;;;;;;;;;;23.11;58.80;99001.55;104563;1277;61192;-70
2022/09/07 11:42:02;;;;;;;;;;;;;;;23.19;58.07;99001.98;104743;1277;61814;-73
2022/09/07 11:44:34;;;;;;;;;;;;;;;23.23;58.58;98999.85;105192;1271;75427;-71
2022/09/07 11:47:03;;;;;;;;;;;;;;;23.32;58.69;98995.52;105251;1269;69870;-70
2022/09/07 11:49:29;;;;;;;;;;;;;;;23.37;58.41;98996.73;105238;1271;74261;-71
2022/09/07 11:51:59;;;;;;;;;;;;;;;23.40;57.91;98998.02;105043;1271;61439;-72
2022/09/07 11:54:42;;;;;;;;;;;;;;;23.35;57.15;98995.21;105241;1271;61889;-69
2022/09/07 11:57:08;;;;;;;;;;;;;;;23.29;57.34;98996.04;105187;1271;75415;-70
2022/09/07 11:59:57;;;;;;;;;;;;;;;23.35;58.01;98995.31;105203;1271;61379;-69
2022/09/07 12:02:28;;;;;;;;;;;;;;;23.39;57.66;98993.79;104562;1277;73540;-71
2022/09/07 12:05:14;;;;;;;;;;;;;;;23.40;57.31;98990.40;104583;1278;61328;-71